createdAt,value
2022-08-03T00:00:56.056Z,22.31
2022-08-03T00:01:58.076Z,22.31
2022-08-03T00:03:01.072Z,22.31
2022-08-03T00:04:05.467Z,22.30
2022-08-03T00:05:09.388Z,22.29
2022-08-03T00:06:11.468Z,22.28
2022-08-03T00:07:14.398Z,22.28
2022-08-03T00:08:16.370Z,22.28
2022-08-03T00:09:22.558Z,22.27
2022-08-03T00:10:24.459Z,22.26
2022-08-03T00:11:27.458Z,22.25
2022-08-03T00:12:29.422Z,22.25
2022-08-03T00:13:32.357Z,22.23
2022-08-03T00:14:35.625Z,22.21
2022-08-03T00:15:38.566Z,22.19
2022-08-03T00:16:40.615Z,22.20
2022-08-03T00:17:53.051Z,22.19
2022-08-03T00:18:56.887Z,22.18
2022-08-03T00:20:00.256Z,22.18
2022-08-03T00:21:03.276Z,22.17
2022-08-03T00:22:05.179Z,22.16
2022-08-03T00:23:08.129Z,22.15
2022-08-03T00:24:10.253Z,22.13
2022-08-03T00:25:13.170Z,22.14
2022-08-03T00:26:16.094Z,22.13
2022-08-03T00:27:17.999Z,22.12
2022-08-03T00:28:20.897Z,22.12
2022-08-03T00:29:22.815Z,22.11
2022-08-03T00:30:27.568Z,22.10
2022-08-03T00:31:45.031Z,22.11
2022-08-03T00:32:54.936Z,22.10
2022-08-03T00:34:03.179Z,22.09
2022-08-03T00:35:09.261Z,22.10
2022-08-03T00:36:14.382Z,22.09
2022-08-03T00:37:17.275Z,22.07
2022-08-03T00:38:20.259Z,22.07
2022-08-03T00:39:22.373Z,22.06
2022-08-03T00:40:25.637Z,22.05
2022-08-03T00:41:27.687Z,22.04
2022-08-03T00:42:30.784Z,22.03
2022-08-03T00:43:33.744Z,22.03
2022-08-03T00:44:39.909Z,22.02
2022-08-03T00:45:45.091Z,22.02
2022-08-03T00:46:46.979Z,22.00
2022-08-03T00:47:50.165Z,22.00
2022-08-03T00:48:53.629Z,22.00
2022-08-03T00:49:56.615Z,21.98
2022-08-03T00:51:00.301Z,21.97
2022-08-03T00:52:09.346Z,21.96
2022-08-03T00:53:13.517Z,21.95
2022-08-03T00:54:17.899Z,21.95
2022-08-03T00:55:20.927Z,21.96
2022-08-03T00:56:22.965Z,21.96
2022-08-03T00:57:26.124Z,21.93
2022-08-03T00:58:29.065Z,21.92
2022-08-03T00:59:31.326Z,21.91
2022-08-03T01:00:35.947Z,21.91
2022-08-03T01:01:37.901Z,21.90
2022-08-03T01:02:41.667Z,21.89
2022-08-03T01:03:43.507Z,21.89
2022-08-03T01:04:46.403Z,21.89
2022-08-03T01:05:56.009Z,21.89
2022-08-03T01:07:10.811Z,21.87
2022-08-03T01:08:24.210Z,21.86
2022-08-03T01:09:36.003Z,21.84
2022-08-03T01:10:45.629Z,21.84
2022-08-03T01:12:00.879Z,21.83
2022-08-03T01:14:01.944Z,21.82
2022-08-03T01:14:50.426Z,21.79
2022-08-03T01:15:59.907Z,21.77
2022-08-03T01:17:11.739Z,21.76
2022-08-03T01:18:19.508Z,21.78
2022-08-03T01:19:36.705Z,21.76
2022-08-03T01:20:44.821Z,21.76
2022-08-03T01:22:02.327Z,21.75
2022-08-03T01:23:23.057Z,21.75
2022-08-03T01:24:37.604Z,21.73
2022-08-03T01:26:01.242Z,21.73
2022-08-03T01:27:09.142Z,21.72
2022-08-03T01:28:26.604Z,21.71
2022-08-03T01:30:00.970Z,21.70
2022-08-03T01:31:07.149Z,21.69
2022-08-03T01:33:02.783Z,21.68
2022-08-03T01:33:41.598Z,21.67
2022-08-03T01:34:47.481Z,21.66
2022-08-03T01:35:55.480Z,21.66
2022-08-03T01:36:59.931Z,21.66
2022-08-03T01:38:07.126Z,21.65
2022-08-03T01:39:09.542Z,21.64
2022-08-03T01:40:15.287Z,21.63
2022-08-03T01:41:21.336Z,21.63
2022-08-03T01:42:25.805Z,21.62
2022-08-03T01:43:55.474Z,21.61
2022-08-03T01:44:56.292Z,21.60
2022-08-03T01:45:58.414Z,21.60
2022-08-03T01:47:03.393Z,21.59
2022-08-03T01:48:07.256Z,21.57
2022-08-03T01:49:12.795Z,21.57
2022-08-03T01:50:15.869Z,21.57
2022-08-03T01:51:23.397Z,21.57
2022-08-03T01:52:26.651Z,21.56
2022-08-03T01:53:32.267Z,21.56
2022-08-03T01:54:37.780Z,21.54
2022-08-03T01:55:41.683Z,21.54
2022-08-03T01:56:45.247Z,21.53
2022-08-03T01:58:06.062Z,21.53
2022-08-03T01:59:11.732Z,21.52
2022-08-03T02:00:16.482Z,21.51
2022-08-03T02:01:23.740Z,21.51
2022-08-03T02:02:33.506Z,21.50
2022-08-03T02:03:59.954Z,21.50
2022-08-03T02:05:11.105Z,21.49
2022-08-03T02:07:02.896Z,21.48
2022-08-03T02:07:38.740Z,21.47
2022-08-03T02:08:41.978Z,21.46
2022-08-03T02:09:47.952Z,21.44
2022-08-03T02:10:51.779Z,21.41
2022-08-03T02:11:56.030Z,21.38
2022-08-03T02:13:01.440Z,21.36
2022-08-03T02:14:07.248Z,21.36
2022-08-03T02:15:11.861Z,21.35
2022-08-03T02:16:20.394Z,21.34
2022-08-03T02:17:38.411Z,21.35
2022-08-03T02:18:43.558Z,21.35
2022-08-03T02:19:47.513Z,21.34
2022-08-03T02:20:50.700Z,21.35
2022-08-03T02:21:57.005Z,21.35
2022-08-03T02:23:03.283Z,21.33
2022-08-03T02:24:08.477Z,21.34
2022-08-03T02:25:12.227Z,21.33
2022-08-03T02:26:20.596Z,21.32
2022-08-03T02:27:26.125Z,21.31
2022-08-03T02:28:35.857Z,21.30
2022-08-03T02:29:41.191Z,21.30
2022-08-03T02:30:46.670Z,21.29
2022-08-03T02:32:01.351Z,21.27
2022-08-03T02:33:04.973Z,21.25
2022-08-03T02:34:12.344Z,21.25
2022-08-03T02:35:18.137Z,21.25
2022-08-03T02:36:23.733Z,21.24
2022-08-03T02:37:29.940Z,21.24
2022-08-03T02:38:33.943Z,21.24
2022-08-03T02:39:37.877Z,21.22
2022-08-03T02:40:42.258Z,21.23
2022-08-03T02:41:48.670Z,21.22
2022-08-03T02:42:59.486Z,21.22
2022-08-03T02:44:06.600Z,21.20
2022-08-03T02:45:13.941Z,21.19
2022-08-03T02:46:20.859Z,21.17
2022-08-03T02:47:27.904Z,21.17
2022-08-03T02:48:33.947Z,21.17
2022-08-03T02:49:50.419Z,21.17
2022-08-03T02:50:58.004Z,21.17
2022-08-03T02:52:02.672Z,21.16
2022-08-03T02:53:06.458Z,21.16
2022-08-03T02:54:09.655Z,21.16
2022-08-03T02:55:14.540Z,21.15
2022-08-03T02:56:18.108Z,21.13
2022-08-03T02:57:22.438Z,21.09
2022-08-03T02:58:25.913Z,21.08
2022-08-03T02:59:31.292Z,21.06
2022-08-03T03:00:34.424Z,21.06
2022-08-03T03:01:39.122Z,21.05
2022-08-03T03:02:44.594Z,21.03
2022-08-03T03:03:49.136Z,21.04
2022-08-03T03:05:51.078Z,21.04
2022-08-03T03:06:17.921Z,21.05
2022-08-03T03:07:22.221Z,21.05
2022-08-03T03:08:28.800Z,21.03
2022-08-03T03:09:41.912Z,21.03
2022-08-03T03:10:47.635Z,21.03
2022-08-03T03:11:50.876Z,21.02
2022-08-03T03:12:58.758Z,21.01
2022-08-03T03:14:01.282Z,21.00
2022-08-03T03:15:04.422Z,21.01
2022-08-03T03:16:07.022Z,21.01
2022-08-03T03:17:11.286Z,20.99
2022-08-03T03:18:21.733Z,20.99
2022-08-03T03:19:26.598Z,20.98
2022-08-03T03:20:30.594Z,20.99
2022-08-03T03:21:34.974Z,20.98
2022-08-03T03:22:38.618Z,20.97
2022-08-03T03:23:43.231Z,20.95
2022-08-03T03:24:47.228Z,20.94
2022-08-03T03:25:51.205Z,20.94
2022-08-03T03:26:53.393Z,20.93
2022-08-03T03:27:56.691Z,20.93
2022-08-03T03:29:01.206Z,20.92
2022-08-03T03:30:04.420Z,20.91
2022-08-03T03:31:07.400Z,20.91
2022-08-03T03:32:10.955Z,20.90
2022-08-03T03:33:14.522Z,20.89
2022-08-03T03:34:19.231Z,20.90
2022-08-03T03:35:21.496Z,20.88
2022-08-03T03:36:24.480Z,20.89
2022-08-03T03:37:26.689Z,20.86
2022-08-03T03:38:29.957Z,20.87
2022-08-03T03:39:32.097Z,20.85
2022-08-03T03:40:36.798Z,20.85
2022-08-03T03:41:39.707Z,20.84
2022-08-03T03:42:42.781Z,20.83
2022-08-03T03:43:45.181Z,20.83
2022-08-03T03:44:48.147Z,20.83
2022-08-03T03:45:51.581Z,20.83
2022-08-03T03:46:54.778Z,20.81
2022-08-03T03:47:56.846Z,20.82
2022-08-03T03:49:01.119Z,20.80
2022-08-03T03:50:04.286Z,20.81
2022-08-03T03:51:08.350Z,20.80
2022-08-03T03:52:11.784Z,20.78
2022-08-03T03:53:14.403Z,20.78
2022-08-03T03:54:19.463Z,20.78
2022-08-03T03:55:21.419Z,20.78
2022-08-03T03:56:24.936Z,20.78
2022-08-03T03:57:26.913Z,20.77
2022-08-03T03:58:29.882Z,20.76
2022-08-03T03:59:32.045Z,20.76
2022-08-03T04:00:39.138Z,20.74
2022-08-03T04:01:41.235Z,20.73
2022-08-03T04:02:44.574Z,20.72
2022-08-03T04:03:48.470Z,20.72
2022-08-03T04:05:10.264Z,20.71
2022-08-03T04:06:31.624Z,20.71
2022-08-03T04:08:03.506Z,20.70
2022-08-03T04:09:24.854Z,20.70
2022-08-03T04:10:50.106Z,20.69
2022-08-03T04:11:55.025Z,20.69
2022-08-03T04:12:59.382Z,20.68
2022-08-03T04:14:07.395Z,20.67
2022-08-03T04:15:12.179Z,20.67
2022-08-03T04:16:17.837Z,20.66
2022-08-03T04:17:20.670Z,20.66
2022-08-03T04:18:24.756Z,20.65
2022-08-03T04:19:31.990Z,20.64
2022-08-03T04:20:37.579Z,20.63
2022-08-03T04:21:44.463Z,20.64
2022-08-03T04:22:48.241Z,20.62
2022-08-03T04:23:54.203Z,20.62
2022-08-03T04:25:01.366Z,20.62
2022-08-03T04:26:06.471Z,20.62
2022-08-03T04:27:11.738Z,20.61
2022-08-03T04:28:30.673Z,20.61
2022-08-03T04:29:48.299Z,20.61
2022-08-03T04:30:52.442Z,20.60
2022-08-03T04:31:56.855Z,20.60
2022-08-03T04:33:01.197Z,20.60
2022-08-03T04:34:07.483Z,20.60
2022-08-03T04:35:10.510Z,20.60
2022-08-03T04:36:19.045Z,20.60
2022-08-03T04:37:33.210Z,20.59
2022-08-03T04:38:41.546Z,20.60
2022-08-03T04:39:44.869Z,20.58
2022-08-03T04:40:49.039Z,20.59
2022-08-03T04:42:07.718Z,20.60
2022-08-03T04:43:15.450Z,20.59
2022-08-03T04:44:21.388Z,20.58
2022-08-03T04:45:32.892Z,20.59
2022-08-03T04:46:39.608Z,20.60
2022-08-03T04:47:51.236Z,20.60
2022-08-03T04:48:53.761Z,20.60
2022-08-03T04:49:57.107Z,20.61
2022-08-03T04:51:00.835Z,20.61
2022-08-03T04:52:06.417Z,20.62
2022-08-03T04:53:08.953Z,20.62
2022-08-03T04:54:13.690Z,20.64
2022-08-03T04:55:25.857Z,20.66
2022-08-03T04:56:28.809Z,20.68
2022-08-03T04:57:30.877Z,20.72
2022-08-03T04:58:34.246Z,20.76
2022-08-03T04:59:39.114Z,20.80
2022-08-03T05:00:45.729Z,20.83
2022-08-03T05:01:47.864Z,20.88
2022-08-03T05:02:50.828Z,20.92
2022-08-03T05:03:52.678Z,20.99
2022-08-03T05:04:55.647Z,21.05
2022-08-03T05:06:09.606Z,21.14
2022-08-03T05:07:15.640Z,21.21
2022-08-03T05:08:20.744Z,21.25
2022-08-03T05:09:49.837Z,21.31
2022-08-03T05:10:52.752Z,21.37
2022-08-03T05:11:55.571Z,21.41
2022-08-03T05:12:57.486Z,21.45
2022-08-03T05:14:00.366Z,21.50
2022-08-03T05:15:02.484Z,21.54
2022-08-03T05:16:05.990Z,21.59
2022-08-03T05:17:08.593Z,21.63
2022-08-03T05:18:14.178Z,21.66
2022-08-03T05:19:16.344Z,21.68
2022-08-03T05:20:19.280Z,21.73
2022-08-03T05:21:21.256Z,21.75
2022-08-03T05:22:25.440Z,21.79
2022-08-03T05:23:27.633Z,21.83
2022-08-03T05:24:30.694Z,21.86
2022-08-03T05:25:32.638Z,21.90
2022-08-03T05:26:35.695Z,21.93
2022-08-03T05:27:37.648Z,21.96
2022-08-03T05:28:40.554Z,21.97
2022-08-03T05:29:52.984Z,22.02
2022-08-03T05:30:56.979Z,22.05
2022-08-03T05:31:58.919Z,22.07
2022-08-03T05:33:02.120Z,22.10
2022-08-03T05:34:04.039Z,22.12
2022-08-03T05:35:57.938Z,22.16
2022-08-03T05:36:31.211Z,22.20
2022-08-03T05:37:34.501Z,22.24
2022-08-03T05:38:39.107Z,22.26
2022-08-03T05:39:41.008Z,22.29
2022-08-03T05:40:56.829Z,22.33
2022-08-03T05:41:59.869Z,22.36
2022-08-03T05:43:03.367Z,22.39
2022-08-03T05:44:05.320Z,22.44
2022-08-03T05:45:15.454Z,22.46
2022-08-03T05:46:17.463Z,22.48
2022-08-03T05:47:20.376Z,22.53
2022-08-03T05:48:22.207Z,22.56
2022-08-03T05:49:25.216Z,22.58
2022-08-03T05:50:27.239Z,22.62
2022-08-03T05:51:30.120Z,22.65
2022-08-03T05:52:32.003Z,22.68
2022-08-03T05:53:36.447Z,22.71
2022-08-03T05:54:56.794Z,22.72
2022-08-03T05:56:03.503Z,22.74
2022-08-03T05:57:17.690Z,22.76
2022-08-03T05:58:19.520Z,22.79
2022-08-03T05:59:38.259Z,22.80
2022-08-03T06:00:41.652Z,22.83
2022-08-03T06:01:43.594Z,22.86
2022-08-03T06:02:46.502Z,22.88
2022-08-03T06:03:48.995Z,22.91
2022-08-03T06:04:51.849Z,22.93
2022-08-03T06:06:00.203Z,22.95
2022-08-03T06:07:03.699Z,22.97
2022-08-03T06:08:05.971Z,23.00
2022-08-03T06:09:10.725Z,23.02
2022-08-03T06:10:35.998Z,23.05
2022-08-03T06:11:35.607Z,23.07
2022-08-03T06:12:37.638Z,23.09
2022-08-03T06:13:40.911Z,23.11
2022-08-03T06:14:42.817Z,23.11
2022-08-03T06:15:45.811Z,23.13
2022-08-03T06:16:47.687Z,23.15
2022-08-03T06:17:51.498Z,23.17
2022-08-03T06:18:54.605Z,23.19
2022-08-03T06:19:56.502Z,23.20
2022-08-03T06:21:13.966Z,23.21
2022-08-03T06:22:19.161Z,23.25
2022-08-03T06:23:53.277Z,23.27
2022-08-03T06:24:53.718Z,23.30
2022-08-03T06:25:56.839Z,23.32
2022-08-03T06:26:59.775Z,23.33
2022-08-03T06:28:01.821Z,23.34
2022-08-03T06:29:04.684Z,23.35
2022-08-03T06:30:11.999Z,23.37
2022-08-03T06:31:14.861Z,23.41
2022-08-03T06:32:16.823Z,23.43
2022-08-03T06:33:20.349Z,23.44
2022-08-03T06:34:33.228Z,23.45
2022-08-03T06:35:37.533Z,23.47
2022-08-03T06:36:44.474Z,23.49
2022-08-03T06:37:48.814Z,23.51
2022-08-03T06:38:50.857Z,23.51
2022-08-03T06:39:55.223Z,23.53
2022-08-03T06:40:57.351Z,23.53
2022-08-03T06:42:00.282Z,23.55
2022-08-03T06:43:03.977Z,23.56
2022-08-03T06:44:06.851Z,23.57
2022-08-03T06:45:09.751Z,23.58
2022-08-03T06:46:12.596Z,23.59
2022-08-03T06:47:14.486Z,23.60
2022-08-03T06:48:17.378Z,23.61
2022-08-03T06:49:19.629Z,23.62
2022-08-03T06:50:26.082Z,23.63
2022-08-03T06:52:04.147Z,23.64
2022-08-03T06:52:52.166Z,23.69
2022-08-03T06:53:54.060Z,23.70
2022-08-03T06:54:58.421Z,23.71
2022-08-03T06:56:00.553Z,23.71
2022-08-03T06:57:03.737Z,23.73
2022-08-03T06:58:06.778Z,23.75
2022-08-03T06:59:08.709Z,23.75
2022-08-03T07:00:32.101Z,23.76
2022-08-03T07:01:34.225Z,23.76
2022-08-03T07:02:37.284Z,23.76
2022-08-03T07:03:52.117Z,23.77
2022-08-03T07:04:54.461Z,23.78
2022-08-03T07:05:57.414Z,23.77
2022-08-03T07:06:59.293Z,23.76
2022-08-03T07:08:03.219Z,23.77
2022-08-03T07:09:05.917Z,23.78
2022-08-03T07:10:11.584Z,23.80
2022-08-03T07:11:14.451Z,23.82
2022-08-03T07:12:16.634Z,23.83
2022-08-03T07:13:19.709Z,23.84
2022-08-03T07:14:23.545Z,23.87
2022-08-03T07:15:38.366Z,23.88
2022-08-03T07:16:49.721Z,23.90
2022-08-03T07:17:52.666Z,23.90
2022-08-03T07:18:54.593Z,23.92
2022-08-03T07:19:57.784Z,23.94
2022-08-03T07:20:59.799Z,23.94
2022-08-03T07:22:04.482Z,23.95
2022-08-03T07:23:07.337Z,23.95
2022-08-03T07:24:10.348Z,23.97
2022-08-03T07:25:13.687Z,23.95
2022-08-03T07:26:16.704Z,23.95
2022-08-03T07:27:18.611Z,23.96
2022-08-03T07:28:21.669Z,23.98
2022-08-03T07:29:23.541Z,23.99
2022-08-03T07:30:26.437Z,24.01
2022-08-03T07:31:28.485Z,24.01
2022-08-03T07:32:37.556Z,24.02
2022-08-03T07:33:53.473Z,24.03
2022-08-03T07:35:00.114Z,24.02
2022-08-03T07:36:03.424Z,24.00
2022-08-03T07:37:06.383Z,24.00
2022-08-03T07:38:08.374Z,24.00
2022-08-03T07:39:16.519Z,24.02
2022-08-03T07:40:21.423Z,24.02
2022-08-03T07:41:24.421Z,24.04
2022-08-03T07:42:28.045Z,24.05
2022-08-03T07:43:31.355Z,24.07
2022-08-03T07:44:33.432Z,24.07
2022-08-03T07:45:36.313Z,24.06
2022-08-03T07:46:38.355Z,24.06
2022-08-03T07:47:41.377Z,24.06
2022-08-03T07:48:49.131Z,24.07
2022-08-03T07:49:51.381Z,24.09
2022-08-03T07:50:54.328Z,24.11
2022-08-03T07:52:11.210Z,24.12
2022-08-03T07:53:14.343Z,24.13
2022-08-03T07:54:17.224Z,24.14
2022-08-03T07:55:22.389Z,24.16
2022-08-03T07:56:25.937Z,24.17
2022-08-03T07:57:27.941Z,24.19
2022-08-03T07:58:30.840Z,24.23
2022-08-03T07:59:56.641Z,24.24
2022-08-03T08:00:55.762Z,24.26
2022-08-03T08:01:57.717Z,24.26
2022-08-03T08:03:00.805Z,24.25
2022-08-03T08:04:02.798Z,24.25
2022-08-03T08:05:06.572Z,24.27
2022-08-03T08:06:09.496Z,24.30
2022-08-03T08:07:12.785Z,24.30
2022-08-03T08:08:15.979Z,24.33
2022-08-03T08:09:18.074Z,24.38
2022-08-03T08:10:22.676Z,24.41
2022-08-03T08:11:24.555Z,24.42
2022-08-03T08:12:27.486Z,24.42
2022-08-03T08:13:30.476Z,24.42
2022-08-03T08:14:32.430Z,24.41
2022-08-03T08:15:35.525Z,24.40
2022-08-03T08:16:47.045Z,24.42
2022-08-03T08:17:52.059Z,24.42
2022-08-03T08:18:54.990Z,24.44
2022-08-03T08:19:56.905Z,24.47
2022-08-03T08:21:01.566Z,24.48
2022-08-03T08:22:03.576Z,24.49
2022-08-03T08:23:37.865Z,24.52
2022-08-03T08:24:31.452Z,24.48
2022-08-03T08:25:36.020Z,24.52
2022-08-03T08:26:38.143Z,24.53
2022-08-03T08:28:29.233Z,24.56
2022-08-03T08:29:08.523Z,24.58
2022-08-03T08:30:15.970Z,24.61
2022-08-03T08:31:21.690Z,24.62
2022-08-03T08:32:23.655Z,24.64
2022-08-03T08:33:37.248Z,24.66
2022-08-03T08:34:45.341Z,24.69
2022-08-03T08:35:47.307Z,24.68
2022-08-03T08:36:50.278Z,24.70
2022-08-03T08:37:53.352Z,24.73
2022-08-03T08:38:55.272Z,24.75
2022-08-03T08:39:58.355Z,24.78
2022-08-03T08:41:02.854Z,24.79
2022-08-03T08:42:04.993Z,24.80
2022-08-03T08:43:08.639Z,24.81
2022-08-03T08:44:11.670Z,24.82
2022-08-03T08:45:15.535Z,24.83
2022-08-03T08:46:23.371Z,24.85
2022-08-03T08:47:51.095Z,24.85
2022-08-03T08:48:55.110Z,24.91
2022-08-03T08:50:09.677Z,24.95
2022-08-03T08:51:14.436Z,24.97
2022-08-03T08:52:24.761Z,24.96
2022-08-03T08:53:35.246Z,24.98
2022-08-03T08:54:41.009Z,24.97
2022-08-03T08:55:59.817Z,24.97
2022-08-03T08:57:21.369Z,25.03
2022-08-03T08:58:35.783Z,25.05
2022-08-03T08:59:48.440Z,25.02
2022-08-03T09:00:53.337Z,25.04
2022-08-03T09:01:57.914Z,25.15
2022-08-03T09:03:02.125Z,25.22
2022-08-03T09:04:06.614Z,25.21
2022-08-03T09:05:12.939Z,25.19
2022-08-03T09:06:16.088Z,25.17
2022-08-03T09:07:20.415Z,25.15
2022-08-03T09:08:24.249Z,25.13
2022-08-03T09:10:08.229Z,25.13
2022-08-03T09:10:50.119Z,25.15
2022-08-03T09:12:00.860Z,25.17
2022-08-03T09:13:13.240Z,25.33
2022-08-03T09:14:36.773Z,25.38
2022-08-03T09:15:39.170Z,25.39
2022-08-03T09:16:56.936Z,25.37
2022-08-03T09:18:01.648Z,25.35
2022-08-03T09:19:13.905Z,25.36
2022-08-03T09:20:16.037Z,25.42
2022-08-03T09:21:31.650Z,25.42
2022-08-03T09:22:34.374Z,25.38
2022-08-03T09:24:01.404Z,25.35
2022-08-03T09:25:23.731Z,25.31
2022-08-03T09:26:29.427Z,25.36
2022-08-03T09:27:42.686Z,25.37
2022-08-03T09:29:00.818Z,25.35
2022-08-03T09:30:33.707Z,25.36
2022-08-03T09:31:43.018Z,25.39
2022-08-03T09:32:47.984Z,25.37
2022-08-03T09:33:50.118Z,25.44
2022-08-03T09:34:57.871Z,25.42
2022-08-03T09:36:01.193Z,25.41
2022-08-03T09:37:14.852Z,25.44
2022-08-03T09:38:23.949Z,25.54
2022-08-03T09:39:40.992Z,25.52
2022-08-03T09:40:45.583Z,25.52
2022-08-03T09:41:50.262Z,25.52
2022-08-03T09:42:57.722Z,25.50
2022-08-03T09:44:01.008Z,25.52
2022-08-03T09:45:04.128Z,25.52
2022-08-03T09:46:07.634Z,25.53
2022-08-03T09:47:12.480Z,25.63
2022-08-03T09:48:22.173Z,25.61
2022-08-03T09:49:25.810Z,25.60
2022-08-03T09:50:27.835Z,25.60
2022-08-03T09:52:28.800Z,25.60
2022-08-03T09:52:54.040Z,25.68
2022-08-03T09:54:00.439Z,25.73
2022-08-03T09:56:01.766Z,25.74
2022-08-03T09:56:42.767Z,25.73
2022-08-03T09:57:46.414Z,25.74
2022-08-03T09:58:48.650Z,25.69
2022-08-03T10:00:04.558Z,25.73
2022-08-03T10:01:24.320Z,25.69
2022-08-03T10:02:28.946Z,25.68
2022-08-03T10:03:32.333Z,25.66
2022-08-03T10:04:35.207Z,25.65
2022-08-03T10:05:39.070Z,25.64
2022-08-03T10:06:42.153Z,25.61
2022-08-03T10:07:46.847Z,25.60
2022-08-03T10:09:07.190Z,25.60
2022-08-03T10:10:30.254Z,25.58
2022-08-03T10:11:40.947Z,25.56
2022-08-03T10:12:48.098Z,25.57
2022-08-03T10:13:50.168Z,25.58
2022-08-03T10:15:02.833Z,25.59
2022-08-03T10:16:22.945Z,25.62
2022-08-03T10:17:27.928Z,25.67
2022-08-03T10:18:30.046Z,25.72
2022-08-03T10:19:33.020Z,25.76
2022-08-03T10:20:39.448Z,25.75
2022-08-03T10:21:44.197Z,25.74
2022-08-03T10:22:48.250Z,25.82
2022-08-03T10:23:53.585Z,25.81
2022-08-03T10:25:01.009Z,25.80
2022-08-03T10:26:05.501Z,25.79
2022-08-03T10:27:08.979Z,25.78
2022-08-03T10:28:15.113Z,25.77
2022-08-03T10:29:24.564Z,25.75
2022-08-03T10:30:29.447Z,25.75
2022-08-03T10:31:35.688Z,25.75
2022-08-03T10:32:42.968Z,25.74
2022-08-03T10:33:52.839Z,25.77
2022-08-03T10:35:04.166Z,25.80
2022-08-03T10:36:24.598Z,25.90
2022-08-03T10:37:29.578Z,25.94
2022-08-03T10:38:37.641Z,25.97
2022-08-03T10:39:53.348Z,25.98
2022-08-03T10:40:59.035Z,25.98
2022-08-03T10:42:03.134Z,25.95
2022-08-03T10:43:10.256Z,25.91
2022-08-03T10:44:18.778Z,25.88
2022-08-03T10:45:24.839Z,25.85
2022-08-03T10:46:28.930Z,25.82
2022-08-03T10:47:32.964Z,25.79
2022-08-03T10:48:36.291Z,25.78
2022-08-03T10:49:39.819Z,25.85
2022-08-03T10:50:43.412Z,25.87
2022-08-03T10:51:47.942Z,25.88
2022-08-03T10:52:56.971Z,25.86
2022-08-03T10:54:01.921Z,25.87
2022-08-03T10:55:49.344Z,25.86
2022-08-03T10:57:14.185Z,25.86
2022-08-03T10:58:53.498Z,25.85
2022-08-03T11:00:04.085Z,25.84
2022-08-03T11:01:09.245Z,25.84
2022-08-03T11:02:13.837Z,25.85
2022-08-03T11:03:16.818Z,25.84
2022-08-03T11:04:19.986Z,25.85
2022-08-03T11:05:29.625Z,25.83
2022-08-03T11:06:37.379Z,25.84
2022-08-03T11:07:39.775Z,25.86
2022-08-03T11:08:42.716Z,25.86
2022-08-03T11:09:47.566Z,25.88
2022-08-03T11:10:52.347Z,25.90
2022-08-03T11:11:55.573Z,25.91
2022-08-03T11:13:06.988Z,25.96
2022-08-03T11:14:12.957Z,25.99
2022-08-03T11:15:33.211Z,26.05
2022-08-03T11:16:38.788Z,26.04
2022-08-03T11:18:11.267Z,26.05
2022-08-03T11:19:15.995Z,26.06
2022-08-03T11:20:44.512Z,26.12
2022-08-03T11:21:57.926Z,26.27
2022-08-03T11:23:01.556Z,26.26
2022-08-03T11:24:06.795Z,26.28
2022-08-03T11:25:08.964Z,26.24
2022-08-03T11:26:31.959Z,26.25
2022-08-03T11:27:33.970Z,26.23
2022-08-03T11:28:38.847Z,26.20
2022-08-03T11:29:54.999Z,26.16
2022-08-03T11:30:57.934Z,26.15
2022-08-03T11:31:59.907Z,26.12
2022-08-03T11:33:04.372Z,26.11
2022-08-03T11:34:07.223Z,26.12
2022-08-03T11:35:12.239Z,26.11
2022-08-03T11:36:16.475Z,26.12
2022-08-03T11:37:34.384Z,26.09
2022-08-03T11:39:16.841Z,26.11
2022-08-03T11:40:35.646Z,26.16
2022-08-03T11:41:45.251Z,26.16
2022-08-03T11:42:48.096Z,26.16
2022-08-03T11:43:51.141Z,26.19
2022-08-03T11:44:54.227Z,26.14
2022-08-03T11:45:59.121Z,26.13
2022-08-03T11:47:01.464Z,26.10
2022-08-03T11:48:15.986Z,26.09
2022-08-03T11:49:23.631Z,26.09
2022-08-03T11:50:26.848Z,26.08
2022-08-03T11:51:31.880Z,26.13
2022-08-03T11:52:40.348Z,26.19
2022-08-03T11:53:44.080Z,26.17
2022-08-03T11:54:47.822Z,26.17
2022-08-03T11:56:01.409Z,26.17
2022-08-03T11:57:03.436Z,26.16
2022-08-03T11:59:17.704Z,26.21
2022-08-03T11:59:33.063Z,26.20
2022-08-03T12:00:35.949Z,26.19
2022-08-03T12:01:38.831Z,26.18
2022-08-03T12:02:54.719Z,26.20
2022-08-03T12:04:05.739Z,26.22
2022-08-03T12:05:08.073Z,26.25
2022-08-03T12:06:11.979Z,26.28
2022-08-03T12:07:13.909Z,26.28
2022-08-03T12:08:37.925Z,26.32
2022-08-03T12:09:41.869Z,26.31
2022-08-03T12:10:50.121Z,26.31
2022-08-03T12:11:59.616Z,26.31
2022-08-03T12:13:56.792Z,26.29
2022-08-03T12:14:48.455Z,26.29
2022-08-03T12:15:56.806Z,26.29
2022-08-03T12:16:58.802Z,26.30
2022-08-03T12:18:02.415Z,26.29
2022-08-03T12:19:08.091Z,26.28
2022-08-03T12:20:20.793Z,26.26
2022-08-03T12:21:57.248Z,26.25
2022-08-03T12:23:05.277Z,26.24
2022-08-03T12:24:08.407Z,26.22
2022-08-03T12:25:39.141Z,26.25
2022-08-03T12:26:58.423Z,26.25
2022-08-03T12:28:36.353Z,26.31
2022-08-03T12:29:39.319Z,26.31
2022-08-03T12:30:42.197Z,26.31
2022-08-03T12:31:45.151Z,26.32
2022-08-03T12:32:47.186Z,26.30
2022-08-03T12:33:58.999Z,26.31
2022-08-03T12:35:04.554Z,26.31
2022-08-03T12:36:09.191Z,26.32
2022-08-03T12:37:20.277Z,26.33
2022-08-03T12:38:25.333Z,26.36
2022-08-03T12:39:30.964Z,26.36
2022-08-03T12:40:33.369Z,26.37
2022-08-03T12:41:38.639Z,26.37
2022-08-03T12:42:40.812Z,26.36
2022-08-03T12:43:50.081Z,26.43
2022-08-03T12:44:54.712Z,26.51
2022-08-03T12:46:10.473Z,26.52
2022-08-03T12:47:12.651Z,26.64
2022-08-03T12:48:15.808Z,26.81
2022-08-03T12:49:19.510Z,26.81
2022-08-03T12:50:27.864Z,26.75
2022-08-03T12:51:33.200Z,26.70
2022-08-03T12:52:45.035Z,26.64
2022-08-03T12:53:52.531Z,26.58
2022-08-03T12:54:57.137Z,26.54
2022-08-03T12:56:05.614Z,26.50
2022-08-03T12:57:11.277Z,26.48
2022-08-03T12:58:33.488Z,26.45
2022-08-03T12:59:40.702Z,26.46
2022-08-03T13:00:55.328Z,26.49
2022-08-03T13:01:59.143Z,26.49
2022-08-03T13:03:39.588Z,26.48
2022-08-03T13:04:30.040Z,26.49
2022-08-03T13:05:46.102Z,26.47
2022-08-03T13:07:02.491Z,26.47
2022-08-03T13:08:18.174Z,26.57
2022-08-03T13:09:20.366Z,26.60
2022-08-03T13:10:32.754Z,26.60
2022-08-03T13:11:55.900Z,26.65
2022-08-03T13:13:00.318Z,26.71
2022-08-03T13:14:02.912Z,26.71
2022-08-03T13:15:06.856Z,26.70
2022-08-03T13:16:09.132Z,26.68
2022-08-03T13:17:12.457Z,26.65
2022-08-03T13:18:14.345Z,26.64
2022-08-03T13:19:20.394Z,26.62
2022-08-03T13:20:23.611Z,26.61
2022-08-03T13:21:30.006Z,26.60
2022-08-03T13:22:33.470Z,26.59
2022-08-03T13:23:35.619Z,26.56
2022-08-03T13:24:38.683Z,26.55
2022-08-03T13:25:41.658Z,26.53
2022-08-03T13:26:57.958Z,26.56
2022-08-03T13:28:03.922Z,26.59
2022-08-03T13:29:08.054Z,26.60
2022-08-03T13:30:11.541Z,26.68
2022-08-03T13:31:13.648Z,26.69
2022-08-03T13:32:16.561Z,26.71
2022-08-03T13:33:18.632Z,26.75
2022-08-03T13:34:23.894Z,26.75
2022-08-03T13:35:27.184Z,26.73
2022-08-03T13:36:30.589Z,26.72
2022-08-03T13:37:47.814Z,26.71
2022-08-03T13:38:52.422Z,26.76
2022-08-03T13:39:59.923Z,26.88
2022-08-03T13:41:04.832Z,26.94
2022-08-03T13:42:07.866Z,26.94
2022-08-03T13:43:10.874Z,26.93
2022-08-03T13:44:28.929Z,26.91
2022-08-03T13:45:32.769Z,26.88
2022-08-03T13:46:35.780Z,26.86
2022-08-03T13:47:38.845Z,26.84
2022-08-03T13:48:40.780Z,26.83
2022-08-03T13:49:54.183Z,26.80
2022-08-03T13:51:05.457Z,26.77
2022-08-03T13:52:26.572Z,26.75
2022-08-03T13:53:29.545Z,26.73
2022-08-03T13:54:32.837Z,26.74
2022-08-03T13:55:35.940Z,26.80
2022-08-03T13:56:37.894Z,26.90
2022-08-03T13:58:02.507Z,26.90
2022-08-03T13:59:03.885Z,26.89
2022-08-03T14:00:10.380Z,26.89
2022-08-03T14:01:13.364Z,26.88
2022-08-03T14:02:15.528Z,26.86
2022-08-03T14:03:18.455Z,26.85
2022-08-03T14:04:22.369Z,26.86
2022-08-03T14:05:25.543Z,26.84
2022-08-03T14:06:28.849Z,26.84
2022-08-03T14:07:32.175Z,26.83
2022-08-03T14:08:35.371Z,26.82
2022-08-03T14:09:38.463Z,26.86
2022-08-03T14:10:44.347Z,26.86
2022-08-03T14:12:07.077Z,26.90
2022-08-03T14:13:10.039Z,26.89
2022-08-03T14:14:13.285Z,26.91
2022-08-03T14:15:15.235Z,27.01
2022-08-03T14:16:18.149Z,27.05
2022-08-03T14:17:23.074Z,27.06
2022-08-03T14:18:28.432Z,27.07
2022-08-03T14:19:34.200Z,27.06
2022-08-03T14:20:57.335Z,27.04
2022-08-03T14:22:06.470Z,27.03
2022-08-03T14:23:11.268Z,26.99